sensor_id;sensor_type;location;lat;lon;timestamp;pressure;altitude;pressure_sealevel;temperature
20103;BMP180;10210;52.284;9.892;2023-03-23T00:02:24;99430.00;;;17.30
20103;BMP180;10210;52.284;9.892;2023-03-23T00:04:50;99431.00;;;17.30
20103;BMP180;10210;52.284;9.892;2023-03-23T00:07:16;99431.00;;;17.30
20103;BMP180;10210;52.284;9.892;2023-03-23T00:09:50;99439.00;;;17.30
20103;BMP180;10210;52.284;9.892;2023-03-23T00:12:24;99423.00;;;17.20
20103;BMP180;10210;52.284;9.892;2023-03-23T00:14:55;99435.00;;;17.20
20103;BMP180;10210;52.284;9.892;2023-03-23T00:17:21;99431.00;;;17.20
20103;BMP180;10210;52.284;9.892;2023-03-23T00:19:46;99430.00;;;17.20
20103;BMP180;10210;52.284;9.892;2023-03-23T00:22:17;99421.00;;;17.10
20103;BMP180;10210;52.284;9.892;2023-03-23T00:24:45;99419.00;;;17.10
20103;BMP180;10210;52.284;9.892;2023-03-23T00:27:12;99431.00;;;17.10
20103;BMP180;10210;52.284;9.892;2023-03-23T00:29:41;99427.00;;;17.10
20103;BMP180;10210;52.284;9.892;2023-03-23T00:32:08;99412.00;;;17.10
20103;BMP180;10210;52.284;9.892;2023-03-23T00:34:42;99425.00;;;17.00
20103;BMP180;10210;52.284;9.892;2023-03-23T00:37:10;99418.00;;;17.00
20103;BMP180;10210;52.284;9.892;2023-03-23T00:39:38;99414.00;;;17.00
20103;BMP180;10210;52.284;9.892;2023-03-23T00:42:05;99415.00;;;17.00
20103;BMP180;10210;52.284;9.892;2023-03-23T00:44:32;99409.00;;;17.00
20103;BMP180;10210;52.284;9.892;2023-03-23T00:47:01;99404.00;;;16.90
20103;BMP180;10210;52.284;9.892;2023-03-23T00:49:27;99409.00;;;16.90
20103;BMP180;10210;52.284;9.892;2023-03-23T00:51:57;99404.00;;;16.90
20103;BMP180;10210;52.284;9.892;2023-03-23T00:54:25;99401.00;;;16.90
20103;BMP180;10210;52.284;9.892;2023-03-23T00:56:51;99400.00;;;16.90
20103;BMP180;10210;52.284;9.892;2023-03-23T00:59:18;99407.00;;;16.80
20103;BMP180;10210;52.284;9.892;2023-03-23T01:01:44;99388.00;;;16.80
20103;BMP180;10210;52.284;9.892;2023-03-23T01:04:12;99400.00;;;16.80
20103;BMP180;10210;52.284;9.892;2023-03-23T01:06:41;99398.00;;;16.80
20103;BMP180;10210;52.284;9.892;2023-03-23T01:09:11;99390.00;;;16.70
20103;BMP180;10210;52.284;9.892;2023-03-23T01:11:44;99381.00;;;16.70
20103;BMP180;10210;52.284;9.892;2023-03-23T01:14:12;99385.00;;;16.70
20103;BMP180;10210;52.284;9.892;2023-03-23T01:16:39;99383.00;;;16.70
20103;BMP180;10210;52.284;9.892;2023-03-23T01:19:05;99377.00;;;16.60
20103;BMP180;10210;52.284;9.892;2023-03-23T01:21:31;99390.00;;;16.60
20103;BMP180;10210;52.284;9.892;2023-03-23T01:23:57;99375.00;;;16.60
20103;BMP180;10210;52.284;9.892;2023-03-23T01:26:25;99368.00;;;16.60
20103;BMP180;10210;52.284;9.892;2023-03-23T01:28:51;99371.00;;;16.60
20103;BMP180;10210;52.284;9.892;2023-03-23T01:31:21;99362.00;;;16.60
20103;BMP180;10210;52.284;9.892;2023-03-23T01:33:47;99363.00;;;16.60
20103;BMP180;10210;52.284;9.892;2023-03-23T01:36:19;99352.00;;;16.50
20103;BMP180;10210;52.284;9.892;2023-03-23T01:38:48;99350.00;;;16.50
20103;BMP180;10210;52.284;9.892;2023-03-23T01:41:17;99354.00;;;16.50
20103;BMP180;10210;52.284;9.892;2023-03-23T01:44:59;99358.00;;;16.50
20103;BMP180;10210;52.284;9.892;2023-03-23T01:46:49;99352.00;;;16.50
20103;BMP180;10210;52.284;9.892;2023-03-23T01:49:23;99362.00;;;16.50
20103;BMP180;10210;52.284;9.892;2023-03-23T01:51:57;99349.00;;;16.50
20103;BMP180;10210;52.284;9.892;2023-03-23T01:54:26;99337.00;;;16.50
20103;BMP180;10210;52.284;9.892;2023-03-23T01:57:07;99347.00;;;16.40
20103;BMP180;10210;52.284;9.892;2023-03-23T01:59:35;99347.00;;;16.50
20103;BMP180;10210;52.284;9.892;2023-03-23T02:02:02;99342.00;;;16.50
20103;BMP180;10210;52.284;9.892;2023-03-23T02:04:29;99340.00;;;16.40
20103;BMP180;10210;52.284;9.892;2023-03-23T02:06:56;99342.00;;;16.40
20103;BMP180;10210;52.284;9.892;2023-03-23T02:09:25;99351.00;;;16.40
20103;BMP180;10210;52.284;9.892;2023-03-23T02:11:52;99346.00;;;16.40
20103;BMP180;10210;52.284;9.892;2023-03-23T02:14:21;99346.00;;;16.40
20103;BMP180;10210;52.284;9.892;2023-03-23T02:17:09;99339.00;;;16.40
20103;BMP180;10210;52.284;9.892;2023-03-23T02:28:31;99325.00;;;16.20
20103;BMP180;10210;52.284;9.892;2023-03-23T02:34:06;99317.00;;;16.20
20103;BMP180;10210;52.284;9.892;2023-03-23T02:37:02;99322.00;;;16.20
20103;BMP180;10210;52.284;9.892;2023-03-23T02:42:10;99316.00;;;16.20
20103;BMP180;10210;52.284;9.892;2023-03-23T02:44:42;99314.00;;;16.20
20103;BMP180;10210;52.284;9.892;2023-03-23T02:47:24;99315.00;;;16.10
20103;BMP180;10210;52.284;9.892;2023-03-23T02:49:54;99314.00;;;16.10
20103;BMP180;10210;52.284;9.892;2023-03-23T02:52:26;99299.00;;;16.10
20103;BMP180;10210;52.284;9.892;2023-03-23T02:54:55;99288.00;;;16.10
20103;BMP180;10210;52.284;9.892;2023-03-23T02:57:23;99292.00;;;16.00
20103;BMP180;10210;52.284;9.892;2023-03-23T02:59:50;99304.00;;;16.00
20103;BMP180;10210;52.284;9.892;2023-03-23T03:02:30;99315.00;;;16.00
20103;BMP180;10210;52.284;9.892;2023-03-23T03:05:44;99312.00;;;15.90
20103;BMP180;10210;52.284;9.892;2023-03-23T03:08:46;99314.00;;;15.90
20103;BMP180;10210;52.284;9.892;2023-03-23T03:11:18;99304.00;;;16.00
20103;BMP180;10210;52.284;9.892;2023-03-23T03:14:01;99287.00;;;16.00
20103;BMP180;10210;52.284;9.892;2023-03-23T03:16:47;99288.00;;;16.00
20103;BMP180;10210;52.284;9.892;2023-03-23T03:19:37;99282.00;;;16.00
20103;BMP180;10210;52.284;9.892;2023-03-23T03:22:05;99285.00;;;16.00
20103;BMP180;10210;52.284;9.892;2023-03-23T03:24:34;99288.00;;;16.00
20103;BMP180;10210;52.284;9.892;2023-03-23T03:27:10;99295.00;;;16.00
20103;BMP180;10210;52.284;9.892;2023-03-23T03:29:40;99291.00;;;16.00
20103;BMP180;10210;52.284;9.892;2023-03-23T03:32:14;99311.00;;;16.00
20103;BMP180;10210;52.284;9.892;2023-03-23T03:34:40;99297.00;;;16.00
20103;BMP180;10210;52.284;9.892;2023-03-23T03:37:06;99299.00;;;16.00
20103;BMP180;10210;52.284;9.892;2023-03-23T03:39:35;99304.00;;;16.00
20103;BMP180;10210;52.284;9.892;2023-03-23T03:42:03;99290.00;;;16.00
20103;BMP180;10210;52.284;9.892;2023-03-23T03:44:29;99297.00;;;16.00
20103;BMP180;10210;52.284;9.892;2023-03-23T03:46:55;99298.00;;;15.90
20103;BMP180;10210;52.284;9.892;2023-03-23T03:49:21;99306.00;;;15.90
20103;BMP180;10210;52.284;9.892;2023-03-23T03:51:48;99299.00;;;15.90
20103;BMP180;10210;52.284;9.892;2023-03-23T03:54:14;99278.00;;;15.80
20103;BMP180;10210;52.284;9.892;2023-03-23T03:56:41;99286.00;;;15.80
20103;BMP180;10210;52.284;9.892;2023-03-23T03:59:09;99283.00;;;15.80
20103;BMP180;10210;52.284;9.892;2023-03-23T04:01:37;99279.00;;;15.80
20103;BMP180;10210;52.284;9.892;2023-03-23T04:04:04;99277.00;;;15.70
20103;BMP180;10210;52.284;9.892;2023-03-23T04:06:33;99272.00;;;15.70
20103;BMP180;10210;52.284;9.892;2023-03-23T04:09:03;99269.00;;;15.70
20103;BMP180;10210;52.284;9.892;2023-03-23T04:11:32;99264.00;;;15.70
20103;BMP180;10210;52.284;9.892;2023-03-23T04:13:58;99282.00;;;15.70
20103;BMP180;10210;52.284;9.892;2023-03-23T04:16:23;99260.00;;;15.60
20103;BMP180;10210;52.284;9.892;2023-03-23T04:18:49;99266.00;;;15.60
20103;BMP180;10210;52.284;9.892;2023-03-23T04:21:15;99268.00;;;15.60
20103;BMP180;10210;52.284;9.892;2023-03-23T04:23:41;99264.00;;;15.60
20103;BMP180;10210;52.284;9.892;2023-03-23T04:26:07;99265.00;;;15.60
20103;BMP180;10210;52.284;9.892;2023-03-23T04:28:33;99289.00;;;15.60
20103;BMP180;10210;52.284;9.892;2023-03-23T04:31:01;99268.00;;;15.70
20103;BMP180;10210;52.284;9.892;2023-03-23T04:33:29;99268.00;;;15.70
20103;BMP180;10210;52.284;9.892;2023-03-23T04:36:00;99267.00;;;15.70
20103;BMP180;10210;52.284;9.892;2023-03-23T04:38:28;99248.00;;;15.70
20103;BMP180;10210;52.284;9.892;2023-03-23T04:40:55;99248.00;;;15.70
20103;BMP180;10210;52.284;9.892;2023-03-23T04:43:23;99245.00;;;15.70
20103;BMP180;10210;52.284;9.892;2023-03-23T04:45:59;99232.00;;;15.70
20103;BMP180;10210;52.284;9.892;2023-03-23T04:48:31;99234.00;;;15.70
20103;BMP180;10210;52.284;9.892;2023-03-23T04:51:01;99240.00;;;15.70
20103;BMP180;10210;52.284;9.892;2023-03-23T04:53:29;99236.00;;;15.70
20103;BMP180;10210;52.284;9.892;2023-03-23T04:55:55;99237.00;;;15.70
20103;BMP180;10210;52.284;9.892;2023-03-23T04:58:21;99234.00;;;15.70
20103;BMP180;10210;52.284;9.892;2023-03-23T05:00:48;99230.00;;;15.70
20103;BMP180;10210;52.284;9.892;2023-03-23T05:03:16;99237.00;;;15.70
20103;BMP180;10210;52.284;9.892;2023-03-23T05:05:44;99232.00;;;15.70
20103;BMP180;10210;52.284;9.892;2023-03-23T05:08:13;99229.00;;;15.80
20103;BMP180;10210;52.284;9.892;2023-03-23T05:10:39;99239.00;;;15.80
20103;BMP180;10210;52.284;9.892;2023-03-23T05:13:05;99243.00;;;15.80
20103;BMP180;10210;52.284;9.892;2023-03-23T05:15:31;99241.00;;;15.80
20103;BMP180;10210;52.284;9.892;2023-03-23T05:17:57;99262.00;;;15.80
20103;BMP180;10210;52.284;9.892;2023-03-23T05:20:22;99262.00;;;15.80
20103;BMP180;10210;52.284;9.892;2023-03-23T05:22:49;99247.00;;;15.80
20103;BMP180;10210;52.284;9.892;2023-03-23T05:25:16;99251.00;;;15.80
20103;BMP180;10210;52.284;9.892;2023-03-23T05:27:45;99247.00;;;15.80
20103;BMP180;10210;52.284;9.892;2023-03-23T05:30:15;99248.00;;;15.80
20103;BMP180;10210;52.284;9.892;2023-03-23T05:32:43;99244.00;;;15.80
20103;BMP180;10210;52.284;9.892;2023-03-23T05:35:12;99250.00;;;15.80
20103;BMP180;10210;52.284;9.892;2023-03-23T05:37:38;99247.00;;;15.80
20103;BMP180;10210;52.284;9.892;2023-03-23T05:40:06;99250.00;;;15.80
20103;BMP180;10210;52.284;9.892;2023-03-23T05:42:35;99245.00;;;15.80
20103;BMP180;10210;52.284;9.892;2023-03-23T05:45:05;99255.00;;;15.80
20103;BMP180;10210;52.284;9.892;2023-03-23T05:47:31;99255.00;;;15.70
20103;BMP180;10210;52.284;9.892;2023-03-23T05:49:58;99253.00;;;15.80
20103;BMP180;10210;52.284;9.892;2023-03-23T05:52:24;99247.00;;;15.80
20103;BMP180;10210;52.284;9.892;2023-03-23T05:54:51;99246.00;;;15.80
20103;BMP180;10210;52.284;9.892;2023-03-23T05:57:17;99249.00;;;15.80
20103;BMP180;10210;52.284;9.892;2023-03-23T05:59:44;99238.00;;;15.70
20103;BMP180;10210;52.284;9.892;2023-03-23T06:02:12;99243.00;;;15.70
20103;BMP180;10210;52.284;9.892;2023-03-23T06:04:40;99250.00;;;15.70
20103;BMP180;10210;52.284;9.892;2023-03-23T06:07:07;99249.00;;;15.70
20103;BMP180;10210;52.284;9.892;2023-03-23T06:09:33;99250.00;;;15.70
20103;BMP180;10210;52.284;9.892;2023-03-23T06:11:58;99241.00;;;15.70
20103;BMP180;10210;52.284;9.892;2023-03-23T06:14:24;99251.00;;;15.70
20103;BMP180;10210;52.284;9.892;2023-03-23T06:16:50;99242.00;;;15.70
20103;BMP180;10210;52.284;9.892;2023-03-23T06:19:16;99246.00;;;15.70
20103;BMP180;10210;52.284;9.892;2023-03-23T06:21:42;99250.00;;;15.70
20103;BMP180;10210;52.284;9.892;2023-03-23T06:24:09;99235.00;;;15.70
20103;BMP180;10210;52.284;9.892;2023-03-23T06:26:38;99235.00;;;15.70
20103;BMP180;10210;52.284;9.892;2023-03-23T06:29:07;99233.00;;;15.70
20103;BMP180;10210;52.284;9.892;2023-03-23T06:31:40;99236.00;;;15.70
20103;BMP180;10210;52.284;9.892;2023-03-23T06:34:07;99238.00;;;15.70
20103;BMP180;10210;52.284;9.892;2023-03-23T06:36:35;99246.00;;;15.80
20103;BMP180;10210;52.284;9.892;2023-03-23T06:39:02;99240.00;;;15.80
20103;BMP180;10210;52.284;9.892;2023-03-23T06:41:33;99240.00;;;15.80
20103;BMP180;10210;52.284;9.892;2023-03-23T06:44:00;99247.00;;;15.80
20103;BMP180;10210;52.284;9.892;2023-03-23T06:46:27;99252.00;;;15.80
20103;BMP180;10210;52.284;9.892;2023-03-23T06:48:54;99257.00;;;15.80
20103;BMP180;10210;52.284;9.892;2023-03-23T06:51:21;99261.00;;;15.80
20103;BMP180;10210;52.284;9.892;2023-03-23T06:53:47;99267.00;;;15.90
20103;BMP180;10210;52.284;9.892;2023-03-23T06:56:12;99271.00;;;15.90
20103;BMP180;10210;52.284;9.892;2023-03-23T06:58:39;99277.00;;;16.00
20103;BMP180;10210;52.284;9.892;2023-03-23T07:01:08;99271.00;;;16.00
20103;BMP180;10210;52.284;9.892;2023-03-23T07:03:35;99275.00;;;16.00
20103;BMP180;10210;52.284;9.892;2023-03-23T07:06:00;99291.00;;;16.10
20103;BMP180;10210;52.284;9.892;2023-03-23T07:08:27;99281.00;;;16.10
20103;BMP180;10210;52.284;9.892;2023-03-23T07:10:54;99286.00;;;16.10
20103;BMP180;10210;52.284;9.892;2023-03-23T07:13:21;99278.00;;;16.10
20103;BMP180;10210;52.284;9.892;2023-03-23T07:15:47;99287.00;;;16.10
20103;BMP180;10210;52.284;9.892;2023-03-23T07:18:14;99282.00;;;16.10
20103;BMP180;10210;52.284;9.892;2023-03-23T07:20:40;99282.00;;;16.10
20103;BMP180;10210;52.284;9.892;2023-03-23T07:23:06;99277.00;;;16.10
20103;BMP180;10210;52.284;9.892;2023-03-23T07:25:34;99282.00;;;16.20
20103;BMP180;10210;52.284;9.892;2023-03-23T07:28:01;99280.00;;;16.20
20103;BMP180;10210;52.284;9.892;2023-03-23T07:30:28;99271.00;;;16.30
20103;BMP180;10210;52.284;9.892;2023-03-23T07:32:58;99279.00;;;16.30
20103;BMP180;10210;52.284;9.892;2023-03-23T07:35:25;99266.00;;;16.40
20103;BMP180;10210;52.284;9.892;2023-03-23T07:37:51;99290.00;;;16.40
20103;BMP180;10210;52.284;9.892;2023-03-23T07:40:19;99288.00;;;16.40
20103;BMP180;10210;52.284;9.892;2023-03-23T07:42:52;99285.00;;;16.50
20103;BMP180;10210;52.284;9.892;2023-03-23T07:45:18;99284.00;;;16.50
20103;BMP180;10210;52.284;9.892;2023-03-23T07:47:47;99287.00;;;16.50
20103;BMP180;10210;52.284;9.892;2023-03-23T07:50:13;99289.00;;;16.60
20103;BMP180;10210;52.284;9.892;2023-03-23T07:52:40;99296.00;;;16.60
20103;BMP180;10210;52.284;9.892;2023-03-23T07:55:10;99282.00;;;16.60
20103;BMP180;10210;52.284;9.892;2023-03-23T07:57:47;99282.00;;;16.70
20103;BMP180;10210;52.284;9.892;2023-03-23T08:00:16;99271.00;;;16.80
20103;BMP180;10210;52.284;9.892;2023-03-23T08:02:47;99269.00;;;17.00
20103;BMP180;10210;52.284;9.892;2023-03-23T08:05:15;99278.00;;;17.00
20103;BMP180;10210;52.284;9.892;2023-03-23T08:07:42;99279.00;;;17.10
20103;BMP180;10210;52.284;9.892;2023-03-23T08:10:10;99279.00;;;17.20
20103;BMP180;10210;52.284;9.892;2023-03-23T08:12:37;99279.00;;;17.30
20103;BMP180;10210;52.284;9.892;2023-03-23T08:15:05;99297.00;;;17.40
20103;BMP180;10210;52.284;9.892;2023-03-23T08:17:32;99280.00;;;17.40
20103;BMP180;10210;52.284;9.892;2023-03-23T08:19:58;99278.00;;;17.40
20103;BMP180;10210;52.284;9.892;2023-03-23T08:22:24;99277.00;;;17.40
20103;BMP180;10210;52.284;9.892;2023-03-23T08:24:50;99297.00;;;17.50
20103;BMP180;10210;52.284;9.892;2023-03-23T08:27:16;99293.00;;;17.60
20103;BMP180;10210;52.284;9.892;2023-03-23T08:29:45;99299.00;;;17.70
20103;BMP180;10210;52.284;9.892;2023-03-23T08:32:12;99298.00;;;17.70
20103;BMP180;10210;52.284;9.892;2023-03-23T08:34:38;99315.00;;;17.70
20103;BMP180;10210;52.284;9.892;2023-03-23T08:37:04;99311.00;;;17.70
20103;BMP180;10210;52.284;9.892;2023-03-23T08:39:30;99308.00;;;17.60
20103;BMP180;10210;52.284;9.892;2023-03-23T08:41:56;99317.00;;;17.60
20103;BMP180;10210;52.284;9.892;2023-03-23T08:44:22;99306.00;;;17.60
20103;BMP180;10210;52.284;9.892;2023-03-23T08:46:47;99307.00;;;17.60
20103;BMP180;10210;52.284;9.892;2023-03-23T08:49:13;99314.00;;;17.50
20103;BMP180;10210;52.284;9.892;2023-03-23T08:51:40;99309.00;;;17.50
20103;BMP180;10210;52.284;9.892;2023-03-23T08:54:06;99315.00;;;17.50
20103;BMP180;10210;52.284;9.892;2023-03-23T08:56:33;99304.00;;;17.50
20103;BMP180;10210;52.284;9.892;2023-03-23T08:58:58;99309.00;;;17.50
20103;BMP180;10210;52.284;9.892;2023-03-23T09:01:24;99314.00;;;17.50
20103;BMP180;10210;52.284;9.892;2023-03-23T09:03:50;99299.00;;;17.50
20103;BMP180;10210;52.284;9.892;2023-03-23T09:06:16;99311.00;;;17.50
20103;BMP180;10210;52.284;9.892;2023-03-23T09:08:41;99316.00;;;17.50
20103;BMP180;10210;52.284;9.892;2023-03-23T09:11:09;99316.00;;;17.50
20103;BMP180;10210;52.284;9.892;2023-03-23T09:13:37;99313.00;;;17.50
20103;BMP180;10210;52.284;9.892;2023-03-23T09:16:05;99315.00;;;17.50
20103;BMP180;10210;52.284;9.892;2023-03-23T09:18:32;99321.00;;;17.60
20103;BMP180;10210;52.284;9.892;2023-03-23T09:20:59;99308.00;;;17.60
20103;BMP180;10210;52.284;9.892;2023-03-23T09:23:26;99314.00;;;17.60
20103;BMP180;10210;52.284;9.892;2023-03-23T09:25:52;99327.00;;;17.60
20103;BMP180;10210;52.284;9.892;2023-03-23T09:28:19;99332.00;;;17.60
20103;BMP180;10210;52.284;9.892;2023-03-23T09:30:45;99339.00;;;17.60
20103;BMP180;10210;52.284;9.892;2023-03-23T09:33:13;99339.00;;;17.60
20103;BMP180;10210;52.284;9.892;2023-03-23T09:35:40;99335.00;;;17.60
20103;BMP180;10210;52.284;9.892;2023-03-23T09:38:09;99351.00;;;17.60
20103;BMP180;10210;52.284;9.892;2023-03-23T09:41:59;99344.00;;;17.50
20103;BMP180;10210;52.284;9.892;2023-03-23T09:44:29;99339.00;;;17.50
20103;BMP180;10210;52.284;9.892;2023-03-23T09:49:40;99347.00;;;17.60
20103;BMP180;10210;52.284;9.892;2023-03-23T09:52:18;99348.00;;;17.60
20103;BMP180;10210;52.284;9.892;2023-03-23T09:54:51;99356.00;;;17.60
20103;BMP180;10210;52.284;9.892;2023-03-23T09:57:32;99365.00;;;17.60
20103;BMP180;10210;52.284;9.892;2023-03-23T10:02:52;99363.00;;;17.60
20103;BMP180;10210;52.284;9.892;2023-03-23T10:05:51;99354.00;;;17.60
20103;BMP180;10210;52.284;9.892;2023-03-23T10:08:24;99370.00;;;17.60
20103;BMP180;10210;52.284;9.892;2023-03-23T10:11:22;99370.00;;;17.60
20103;BMP180;10210;52.284;9.892;2023-03-23T10:14:06;99374.00;;;17.60
20103;BMP180;10210;52.284;9.892;2023-03-23T10:16:40;99370.00;;;17.60
20103;BMP180;10210;52.284;9.892;2023-03-23T10:19:39;99385.00;;;17.60
20103;BMP180;10210;52.284;9.892;2023-03-23T10:22:15;99387.00;;;17.60
20103;BMP180;10210;52.284;9.892;2023-03-23T10:25:15;99382.00;;;17.60
20103;BMP180;10210;52.284;9.892;2023-03-23T10:30:33;99384.00;;;17.60
20103;BMP180;10210;52.284;9.892;2023-03-23T10:36:05;99392.00;;;17.60
20103;BMP180;10210;52.284;9.892;2023-03-23T10:38:49;99391.00;;;17.60
20103;BMP180;10210;52.284;9.892;2023-03-23T10:41:18;99381.00;;;17.70
20103;BMP180;10210;52.284;9.892;2023-03-23T10:43:45;99380.00;;;17.70
20103;BMP180;10210;52.284;9.892;2023-03-23T10:46:39;99384.00;;;17.70
20103;BMP180;10210;52.284;9.892;2023-03-23T10:49:12;99388.00;;;17.70
20103;BMP180;10210;52.284;9.892;2023-03-23T10:51:46;99389.00;;;17.80
20103;BMP180;10210;52.284;9.892;2023-03-23T10:54:35;99387.00;;;17.80
20103;BMP180;10210;52.284;9.892;2023-03-23T11:00:23;99382.00;;;17.90
20103;BMP180;10210;52.284;9.892;2023-03-23T11:03:06;99390.00;;;18.00
20103;BMP180;10210;52.284;9.892;2023-03-23T11:05:40;99375.00;;;18.10
20103;BMP180;10210;52.284;9.892;2023-03-23T11:08:14;99374.00;;;18.20
20103;BMP180;10210;52.284;9.892;2023-03-23T11:10:50;99394.00;;;18.30
20103;BMP180;10210;52.284;9.892;2023-03-23T11:13:18;99387.00;;;18.40
20103;BMP180;10210;52.284;9.892;2023-03-23T11:15:47;99374.00;;;18.50
20103;BMP180;10210;52.284;9.892;2023-03-23T11:18:33;99388.00;;;18.60
20103;BMP180;10210;52.284;9.892;2023-03-23T11:21:00;99387.00;;;18.80
20103;BMP180;10210;52.284;9.892;2023-03-23T11:24:15;99378.00;;;18.80
20103;BMP180;10210;52.284;9.892;2023-03-23T11:29:13;99383.00;;;18.90
20103;BMP180;10210;52.284;9.892;2023-03-23T11:31:52;99387.00;;;19.00
20103;BMP180;10210;52.284;9.892;2023-03-23T11:34:30;99397.00;;;19.00
20103;BMP180;10210;52.284;9.892;2023-03-23T11:37:02;99399.00;;;19.10
20103;BMP180;10210;52.284;9.892;2023-03-23T11:42:23;99378.00;;;19.10
20103;BMP180;10210;52.284;9.892;2023-03-23T11:44:54;99375.00;;;19.10
20103;BMP180;10210;52.284;9.892;2023-03-23T11:48:19;99383.00;;;19.00
20103;BMP180;10210;52.284;9.892;2023-03-23T11:50:57;99393.00;;;19.10
20103;BMP180;10210;52.284;9.892;2023-03-23T11:53:49;99390.00;;;19.00
20103;BMP180;10210;52.284;9.892;2023-03-23T11:56:28;99389.00;;;19.00
20103;BMP180;10210;52.284;9.892;2023-03-23T11:58:57;99384.00;;;19.10
20103;BMP180;10210;52.284;9.892;2023-03-23T12:01:56;99385.00;;;19.00
20103;BMP180;10210;52.284;9.892;2023-03-23T12:07:54;99382.00;;;19.70
20103;BMP180;10210;52.284;9.892;2023-03-23T12:10:47;99377.00;;;19.20
20103;BMP180;10210;52.284;9.892;2023-03-23T12:13:33;99382.00;;;19.10
20103;BMP180;10210;52.284;9.892;2023-03-23T12:16:16;99375.00;;;19.00
20103;BMP180;10210;52.284;9.892;2023-03-23T12:21:35;99387.00;;;19.00
20103;BMP180;10210;52.284;9.892;2023-03-23T12:30:35;99433.00;;;18.70
20103;BMP180;10210;52.284;9.892;2023-03-23T12:36:45;99425.00;;;18.20
20103;BMP180;10210;52.284;9.892;2023-03-23T12:39:48;99418.00;;;18.10
20103;BMP180;10210;52.284;9.892;2023-03-23T12:42:58;99429.00;;;18.20
20103;BMP180;10210;52.284;9.892;2023-03-23T12:46:01;99439.00;;;18.00
20103;BMP180;10210;52.284;9.892;2023-03-23T12:48:40;99442.00;;;17.90
20103;BMP180;10210;52.284;9.892;2023-03-23T12:54:09;99461.00;;;17.70
20103;BMP180;10210;52.284;9.892;2023-03-23T12:56:58;99472.00;;;17.50
20103;BMP180;10210;52.284;9.892;2023-03-23T13:02:34;99467.00;;;17.40
20103;BMP180;10210;52.284;9.892;2023-03-23T13:05:28;99482.00;;;17.30
20103;BMP180;10210;52.284;9.892;2023-03-23T13:08:17;99470.00;;;17.20
20103;BMP180;10210;52.284;9.892;2023-03-23T13:10:54;99475.00;;;17.20
20103;BMP180;10210;52.284;9.892;2023-03-23T13:13:24;99474.00;;;17.20
20103;BMP180;10210;52.284;9.892;2023-03-23T13:16:11;99471.00;;;17.10
20103;BMP180;10210;52.284;9.892;2023-03-23T13:19:31;99477.00;;;17.00
20103;BMP180;10210;52.284;9.892;2023-03-23T13:22:15;99474.00;;;17.10
20103;BMP180;10210;52.284;9.892;2023-03-23T13:24:55;99484.00;;;17.10
20103;BMP180;10210;52.284;9.892;2023-03-23T13:27:26;99482.00;;;17.20
20103;BMP180;10210;52.284;9.892;2023-03-23T13:29:56;99470.00;;;17.20
20103;BMP180;10210;52.284;9.892;2023-03-23T13:32:34;99472.00;;;17.20
20103;BMP180;10210;52.284;9.892;2023-03-23T13:35:12;99475.00;;;17.20
20103;BMP180;10210;52.284;9.892;2023-03-23T13:37:47;99464.00;;;17.20
20103;BMP180;10210;52.284;9.892;2023-03-23T13:40:30;99472.00;;;17.20
20103;BMP180;10210;52.284;9.892;2023-03-23T13:43:02;99468.00;;;17.20
20103;BMP180;10210;52.284;9.892;2023-03-23T13:50:59;99480.00;;;17.30
20103;BMP180;10210;52.284;9.892;2023-03-23T13:53:47;99487.00;;;17.30
20103;BMP180;10210;52.284;9.892;2023-03-23T13:56:40;99484.00;;;17.30
20103;BMP180;10210;52.284;9.892;2023-03-23T13:59:54;99475.00;;;17.20
20103;BMP180;10210;52.284;9.892;2023-03-23T14:03:25;99483.00;;;17.20
20103;BMP180;10210;52.284;9.892;2023-03-23T14:10:58;99481.00;;;17.10
20103;BMP180;10210;52.284;9.892;2023-03-23T14:13:47;99501.00;;;17.10
20103;BMP180;10210;52.284;9.892;2023-03-23T14:16:31;99498.00;;;17.00
20103;BMP180;10210;52.284;9.892;2023-03-23T14:19:01;99492.00;;;17.00
20103;BMP180;10210;52.284;9.892;2023-03-23T14:24:20;99493.00;;;16.90
20103;BMP180;10210;52.284;9.892;2023-03-23T14:26:48;99483.00;;;16.90
20103;BMP180;10210;52.284;9.892;2023-03-23T14:29:19;99493.00;;;16.90
20103;BMP180;10210;52.284;9.892;2023-03-23T14:31:52;99493.00;;;16.90
20103;BMP180;10210;52.284;9.892;2023-03-23T14:34:21;99498.00;;;16.90
20103;BMP180;10210;52.284;9.892;2023-03-23T14:36:48;99488.00;;;16.90
20103;BMP180;10210;52.284;9.892;2023-03-23T14:41:49;99492.00;;;16.90
20103;BMP180;10210;52.284;9.892;2023-03-23T14:44:30;99485.00;;;16.80
20103;BMP180;10210;52.284;9.892;2023-03-23T14:47:00;99490.00;;;16.80
20103;BMP180;10210;52.284;9.892;2023-03-23T14:49:42;99488.00;;;16.70
20103;BMP180;10210;52.284;9.892;2023-03-23T14:52:16;99496.00;;;16.70
20103;BMP180;10210;52.284;9.892;2023-03-23T14:54:44;99492.00;;;16.70
20103;BMP180;10210;52.284;9.892;2023-03-23T14:57:26;99501.00;;;16.70
20103;BMP180;10210;52.284;9.892;2023-03-23T14:59:53;99503.00;;;16.70
20103;BMP180;10210;52.284;9.892;2023-03-23T15:02:35;99495.00;;;16.60
20103;BMP180;10210;52.284;9.892;2023-03-23T15:05:17;99494.00;;;16.50
20103;BMP180;10210;52.284;9.892;2023-03-23T15:07:51;99496.00;;;16.50
20103;BMP180;10210;52.284;9.892;2023-03-23T15:10:21;99494.00;;;16.50
20103;BMP180;10210;52.284;9.892;2023-03-23T15:12:49;99497.00;;;16.50
20103;BMP180;10210;52.284;9.892;2023-03-23T15:15:34;99506.00;;;16.50
20103;BMP180;10210;52.284;9.892;2023-03-23T15:18:02;99499.00;;;16.50
20103;BMP180;10210;52.284;9.892;2023-03-23T15:20:43;99494.00;;;16.50
20103;BMP180;10210;52.284;9.892;2023-03-23T15:23:17;99488.00;;;16.50
20103;BMP180;10210;52.284;9.892;2023-03-23T15:25:56;99494.00;;;16.50
20103;BMP180;10210;52.284;9.892;2023-03-23T15:28:32;99478.00;;;16.50
20103;BMP180;10210;52.284;9.892;2023-03-23T15:31:04;99483.00;;;16.60
20103;BMP180;10210;52.284;9.892;2023-03-23T15:33:39;99490.00;;;16.60
20103;BMP180;10210;52.284;9.892;2023-03-23T15:36:14;99492.00;;;16.60
20103;BMP180;10210;52.284;9.892;2023-03-23T15:38:44;99509.00;;;16.60
20103;BMP180;10210;52.284;9.892;2023-03-23T15:41:27;99510.00;;;16.60
20103;BMP180;10210;52.284;9.892;2023-03-23T15:43:56;99510.00;;;16.70
20103;BMP180;10210;52.284;9.892;2023-03-23T15:46:28;99515.00;;;16.70
20103;BMP180;10210;52.284;9.892;2023-03-23T15:51:31;99515.00;;;16.70
20103;BMP180;10210;52.284;9.892;2023-03-23T15:53:57;99519.00;;;16.80
20103;BMP180;10210;52.284;9.892;2023-03-23T15:56:25;99510.00;;;16.80